sensor_id;sensor_type;location;lat;lon;timestamp;temperature;humidity
1778;DHT22;886;50.082;8.222;2023-05-17T00:02:07;11.30;97.10
1778;DHT22;886;50.082;8.222;2023-05-17T00:04:34;11.30;97.10
1778;DHT22;886;50.082;8.222;2023-05-17T00:07:02;11.40;97.00
1778;DHT22;886;50.082;8.222;2023-05-17T00:09:31;11.40;97.00
1778;DHT22;886;50.082;8.222;2023-05-17T00:11:58;11.40;97.00
1778;DHT22;886;50.082;8.222;2023-05-17T00:14:26;11.40;97.00
1778;DHT22;886;50.082;8.222;2023-05-17T00:16:53;11.40;97.10
1778;DHT22;886;50.082;8.222;2023-05-17T00:19:20;11.40;97.20
1778;DHT22;886;50.082;8.222;2023-05-17T00:21:48;11.40;97.20
1778;DHT22;886;50.082;8.222;2023-05-17T00:24:15;11.40;97.30
1778;DHT22;886;50.082;8.222;2023-05-17T00:26:44;11.30;97.30
1778;DHT22;886;50.082;8.222;2023-05-17T00:29:11;11.30;97.40
1778;DHT22;886;50.082;8.222;2023-05-17T00:31:38;11.30;97.40
1778;DHT22;886;50.082;8.222;2023-05-17T00:34:06;11.40;97.30
1778;DHT22;886;50.082;8.222;2023-05-17T00:36:33;11.40;97.20
1778;DHT22;886;50.082;8.222;2023-05-17T00:39:00;11.30;97.50
1778;DHT22;886;50.082;8.222;2023-05-17T00:41:46;11.30;97.60
1778;DHT22;886;50.082;8.222;2023-05-17T00:44:13;11.20;97.60
1778;DHT22;886;50.082;8.222;2023-05-17T00:46:41;11.20;97.70
1778;DHT22;886;50.082;8.222;2023-05-17T00:49:08;11.10;97.90
1778;DHT22;886;50.082;8.222;2023-05-17T00:51:35;11.10;97.90
1778;DHT22;886;50.082;8.222;2023-05-17T00:54:03;11.10;97.90
1778;DHT22;886;50.082;8.222;2023-05-17T00:56:30;11.00;98.00
1778;DHT22;886;50.082;8.222;2023-05-17T00:59:00;11.00;98.10
1778;DHT22;886;50.082;8.222;2023-05-17T01:01:28;10.90;98.40
1778;DHT22;886;50.082;8.222;2023-05-17T01:03:56;10.80;98.40
1778;DHT22;886;50.082;8.222;2023-05-17T01:06:23;10.80;98.60
1778;DHT22;886;50.082;8.222;2023-05-17T01:08:50;10.80;98.70
1778;DHT22;886;50.082;8.222;2023-05-17T01:11:28;10.70;98.80
1778;DHT22;886;50.082;8.222;2023-05-17T01:14:15;10.70;98.90
1778;DHT22;886;50.082;8.222;2023-05-17T01:16:56;10.70;98.80
1778;DHT22;886;50.082;8.222;2023-05-17T01:19:44;10.70;98.70
1778;DHT22;886;50.082;8.222;2023-05-17T01:22:26;10.80;98.80
1778;DHT22;886;50.082;8.222;2023-05-17T01:25:06;10.70;98.80
1778;DHT22;886;50.082;8.222;2023-05-17T01:27:42;10.70;99.00
1778;DHT22;886;50.082;8.222;2023-05-17T01:30:12;10.60;99.00
1778;DHT22;886;50.082;8.222;2023-05-17T01:32:40;10.60;99.10
1778;DHT22;886;50.082;8.222;2023-05-17T01:35:10;10.60;99.10
1778;DHT22;886;50.082;8.222;2023-05-17T01:37:38;10.50;99.20
1778;DHT22;886;50.082;8.222;2023-05-17T01:40:07;10.50;99.30
1778;DHT22;886;50.082;8.222;2023-05-17T01:42:37;10.30;99.50
1778;DHT22;886;50.082;8.222;2023-05-17T01:45:13;10.30;99.70
1778;DHT22;886;50.082;8.222;2023-05-17T01:47:49;10.30;99.60
1778;DHT22;886;50.082;8.222;2023-05-17T01:50:25;10.30;99.70
1778;DHT22;886;50.082;8.222;2023-05-17T01:53:01;10.30;99.80
1778;DHT22;886;50.082;8.222;2023-05-17T01:55:42;10.30;99.90
1778;DHT22;886;50.082;8.222;2023-05-17T01:58:13;10.40;99.60
1778;DHT22;886;50.082;8.222;2023-05-17T02:00:44;10.40;99.60
1778;DHT22;886;50.082;8.222;2023-05-17T02:03:13;10.30;99.70
1778;DHT22;886;50.082;8.222;2023-05-17T02:05:43;10.30;99.70
1778;DHT22;886;50.082;8.222;2023-05-17T02:08:10;10.30;99.60
1778;DHT22;886;50.082;8.222;2023-05-17T02:10:37;10.30;99.60
1778;DHT22;886;50.082;8.222;2023-05-17T02:13:05;10.30;99.60
1778;DHT22;886;50.082;8.222;2023-05-17T02:15:33;10.30;99.60
1778;DHT22;886;50.082;8.222;2023-05-17T02:18:00;10.30;99.70
1778;DHT22;886;50.082;8.222;2023-05-17T02:20:28;10.20;99.80
1778;DHT22;886;50.082;8.222;2023-05-17T02:22:55;10.20;99.90
1778;DHT22;886;50.082;8.222;2023-05-17T02:25:22;10.20;99.90
1778;DHT22;886;50.082;8.222;2023-05-17T02:27:49;10.00;99.90
1778;DHT22;886;50.082;8.222;2023-05-17T02:30:17;10.00;99.90
1778;DHT22;886;50.082;8.222;2023-05-17T02:32:50;9.90;99.90
1778;DHT22;886;50.082;8.222;2023-05-17T02:35:18;9.90;99.90
1778;DHT22;886;50.082;8.222;2023-05-17T02:37:45;9.90;99.90
1778;DHT22;886;50.082;8.222;2023-05-17T02:40:12;9.80;99.90
1778;DHT22;886;50.082;8.222;2023-05-17T02:42:39;9.70;99.90
1778;DHT22;886;50.082;8.222;2023-05-17T02:45:07;9.70;99.90
1778;DHT22;886;50.082;8.222;2023-05-17T02:47:35;9.70;99.90
1778;DHT22;886;50.082;8.222;2023-05-17T02:50:04;9.70;99.90
1778;DHT22;886;50.082;8.222;2023-05-17T02:52:31;9.70;99.90
1778;DHT22;886;50.082;8.222;2023-05-17T02:54:58;9.70;99.90
1778;DHT22;886;50.082;8.222;2023-05-17T02:57:26;9.60;99.90
1778;DHT22;886;50.082;8.222;2023-05-17T02:59:53;9.70;99.90
1778;DHT22;886;50.082;8.222;2023-05-17T03:02:20;9.70;99.90
1778;DHT22;886;50.082;8.222;2023-05-17T03:04:48;9.60;99.90
1778;DHT22;886;50.082;8.222;2023-05-17T03:07:16;9.70;99.90
1778;DHT22;886;50.082;8.222;2023-05-17T03:10:01;9.60;99.90
1778;DHT22;886;50.082;8.222;2023-05-17T03:12:28;9.60;99.90
1778;DHT22;886;50.082;8.222;2023-05-17T03:14:55;9.60;99.90
1778;DHT22;886;50.082;8.222;2023-05-17T03:17:22;9.50;99.90
1778;DHT22;886;50.082;8.222;2023-05-17T03:19:49;9.50;99.90
1778;DHT22;886;50.082;8.222;2023-05-17T03:22:18;9.40;99.90
1778;DHT22;886;50.082;8.222;2023-05-17T03:24:45;9.40;99.90
1778;DHT22;886;50.082;8.222;2023-05-17T03:27:13;9.40;99.90
1778;DHT22;886;50.082;8.222;2023-05-17T03:29:40;9.40;99.90
1778;DHT22;886;50.082;8.222;2023-05-17T03:32:08;9.30;99.90
1778;DHT22;886;50.082;8.222;2023-05-17T03:34:35;9.30;99.90
1778;DHT22;886;50.082;8.222;2023-05-17T03:37:02;9.30;99.90
1778;DHT22;886;50.082;8.222;2023-05-17T03:39:31;9.40;99.90
1778;DHT22;886;50.082;8.222;2023-05-17T03:41:58;9.40;99.90
1778;DHT22;886;50.082;8.222;2023-05-17T03:44:25;9.40;99.90
1778;DHT22;886;50.082;8.222;2023-05-17T03:46:52;9.40;99.90
1778;DHT22;886;50.082;8.222;2023-05-17T03:49:19;9.50;99.90
1778;DHT22;886;50.082;8.222;2023-05-17T03:51:48;9.50;99.90
1778;DHT22;886;50.082;8.222;2023-05-17T03:54:15;9.50;99.90
1778;DHT22;886;50.082;8.222;2023-05-17T03:56:43;9.50;99.90
1778;DHT22;886;50.082;8.222;2023-05-17T03:59:13;9.60;99.90
1778;DHT22;886;50.082;8.222;2023-05-17T04:01:41;9.60;99.90
1778;DHT22;886;50.082;8.222;2023-05-17T04:04:09;9.50;99.90
1778;DHT22;886;50.082;8.222;2023-05-17T04:06:37;9.50;99.90
1778;DHT22;886;50.082;8.222;2023-05-17T04:09:04;9.50;99.90
1778;DHT22;886;50.082;8.222;2023-05-17T04:11:32;9.50;99.90
1778;DHT22;886;50.082;8.222;2023-05-17T04:14:03;9.60;99.90
1778;DHT22;886;50.082;8.222;2023-05-17T04:16:30;9.60;99.90
1778;DHT22;886;50.082;8.222;2023-05-17T04:18:58;9.70;99.90
1778;DHT22;886;50.082;8.222;2023-05-17T04:21:26;9.70;99.90
1778;DHT22;886;50.082;8.222;2023-05-17T04:23:53;9.60;99.90
1778;DHT22;886;50.082;8.222;2023-05-17T04:26:21;9.70;99.90
1778;DHT22;886;50.082;8.222;2023-05-17T04:28:49;9.70;99.90
1778;DHT22;886;50.082;8.222;2023-05-17T04:31:17;9.80;99.90
1778;DHT22;886;50.082;8.222;2023-05-17T04:33:45;9.70;99.90
1778;DHT22;886;50.082;8.222;2023-05-17T04:36:12;9.70;99.90
1778;DHT22;886;50.082;8.222;2023-05-17T04:38:39;9.60;99.90
1778;DHT22;886;50.082;8.222;2023-05-17T04:41:06;9.60;99.90
1778;DHT22;886;50.082;8.222;2023-05-17T04:43:35;9.60;99.90
1778;DHT22;886;50.082;8.222;2023-05-17T04:46:02;9.60;99.90
1778;DHT22;886;50.082;8.222;2023-05-17T04:48:32;9.60;99.90
1778;DHT22;886;50.082;8.222;2023-05-17T04:51:01;9.50;99.90
1778;DHT22;886;50.082;8.222;2023-05-17T04:53:32;9.50;99.90
1778;DHT22;886;50.082;8.222;2023-05-17T04:55:59;9.50;99.90
1778;DHT22;886;50.082;8.222;2023-05-17T04:58:26;9.40;99.90
1778;DHT22;886;50.082;8.222;2023-05-17T05:00:53;9.30;99.90
1778;DHT22;886;50.082;8.222;2023-05-17T05:03:21;9.30;99.90
1778;DHT22;886;50.082;8.222;2023-05-17T05:05:50;9.40;99.90
1778;DHT22;886;50.082;8.222;2023-05-17T05:08:17;9.40;99.90
1778;DHT22;886;50.082;8.222;2023-05-17T05:10:45;9.30;99.90
1778;DHT22;886;50.082;8.222;2023-05-17T05:13:12;9.30;99.90
1778;DHT22;886;50.082;8.222;2023-05-17T05:15:39;9.40;99.90
1778;DHT22;886;50.082;8.222;2023-05-17T05:18:07;9.50;99.90
1778;DHT22;886;50.082;8.222;2023-05-17T05:20:34;9.50;99.90
1778;DHT22;886;50.082;8.222;2023-05-17T05:23:03;9.60;99.90
1778;DHT22;886;50.082;8.222;2023-05-17T05:25:31;9.80;99.90
1778;DHT22;886;50.082;8.222;2023-05-17T05:28:00;9.90;99.90
1778;DHT22;886;50.082;8.222;2023-05-17T05:30:27;9.90;99.90
1778;DHT22;886;50.082;8.222;2023-05-17T05:32:55;9.90;99.90
1778;DHT22;886;50.082;8.222;2023-05-17T05:35:22;9.90;99.90
1778;DHT22;886;50.082;8.222;2023-05-17T05:37:56;10.00;99.90
1778;DHT22;886;50.082;8.222;2023-05-17T05:40:25;10.00;99.90
1778;DHT22;886;50.082;8.222;2023-05-17T05:42:53;10.10;99.90
1778;DHT22;886;50.082;8.222;2023-05-17T05:45:20;10.10;99.90
1778;DHT22;886;50.082;8.222;2023-05-17T05:47:48;10.00;99.90
1778;DHT22;886;50.082;8.222;2023-05-17T05:50:15;10.10;99.90
1778;DHT22;886;50.082;8.222;2023-05-17T05:52:42;10.20;99.90
1778;DHT22;886;50.082;8.222;2023-05-17T05:55:10;10.30;99.90
1778;DHT22;886;50.082;8.222;2023-05-17T05:57:38;10.30;99.90
1778;DHT22;886;50.082;8.222;2023-05-17T06:00:07;10.40;99.90
1778;DHT22;886;50.082;8.222;2023-05-17T06:02:38;10.50;99.90
1778;DHT22;886;50.082;8.222;2023-05-17T06:05:06;10.50;99.90
1778;DHT22;886;50.082;8.222;2023-05-17T06:07:33;10.60;99.90
1778;DHT22;886;50.082;8.222;2023-05-17T06:10:00;10.70;99.90
1778;DHT22;886;50.082;8.222;2023-05-17T06:12:27;10.70;99.90
1778;DHT22;886;50.082;8.222;2023-05-17T06:14:56;10.80;99.90
1778;DHT22;886;50.082;8.222;2023-05-17T06:17:23;10.90;99.90
1778;DHT22;886;50.082;8.222;2023-05-17T06:19:50;11.00;99.90
1778;DHT22;886;50.082;8.222;2023-05-17T06:22:18;11.10;99.90
1778;DHT22;886;50.082;8.222;2023-05-17T06:24:45;11.30;99.90
1778;DHT22;886;50.082;8.222;2023-05-17T06:27:12;11.50;99.60
1778;DHT22;886;50.082;8.222;2023-05-17T06:29:39;11.60;99.30
1778;DHT22;886;50.082;8.222;2023-05-17T06:32:09;11.60;99.00
1778;DHT22;886;50.082;8.222;2023-05-17T06:34:37;11.70;98.80
1778;DHT22;886;50.082;8.222;2023-05-17T06:37:06;11.90;98.70
1778;DHT22;886;50.082;8.222;2023-05-17T06:39:33;12.10;98.20
1778;DHT22;886;50.082;8.222;2023-05-17T06:42:00;12.50;97.90
1778;DHT22;886;50.082;8.222;2023-05-17T06:44:27;12.80;97.40
1778;DHT22;886;50.082;8.222;2023-05-17T06:46:55;12.60;96.90
1778;DHT22;886;50.082;8.222;2023-05-17T06:49:23;12.70;97.20
1778;DHT22;886;50.082;8.222;2023-05-17T06:51:51;12.90;97.00
1778;DHT22;886;50.082;8.222;2023-05-17T06:54:20;13.10;96.70
1778;DHT22;886;50.082;8.222;2023-05-17T06:56:47;13.30;96.80
1778;DHT22;886;50.082;8.222;2023-05-17T06:59:15;13.20;96.30
1778;DHT22;886;50.082;8.222;2023-05-17T07:01:42;13.00;96.40
1778;DHT22;886;50.082;8.222;2023-05-17T07:04:09;12.80;96.40
1778;DHT22;886;50.082;8.222;2023-05-17T07:06:38;12.70;96.70
1778;DHT22;886;50.082;8.222;2023-05-17T07:09:05;12.70;97.10
1778;DHT22;886;50.082;8.222;2023-05-17T07:11:32;12.80;97.00
1778;DHT22;886;50.082;8.222;2023-05-17T07:14:17;13.00;96.70
1778;DHT22;886;50.082;8.222;2023-05-17T07:16:43;13.40;95.30
1778;DHT22;886;50.082;8.222;2023-05-17T07:19:11;13.90;94.00
1778;DHT22;886;50.082;8.222;2023-05-17T07:21:40;14.50;93.30
1778;DHT22;886;50.082;8.222;2023-05-17T07:24:07;14.60;92.00
1778;DHT22;886;50.082;8.222;2023-05-17T07:26:35;14.20;92.00
1778;DHT22;886;50.082;8.222;2023-05-17T07:29:02;14.20;92.10
1778;DHT22;886;50.082;8.222;2023-05-17T07:31:29;14.30;92.00
1778;DHT22;886;50.082;8.222;2023-05-17T07:33:57;14.20;92.00
1778;DHT22;886;50.082;8.222;2023-05-17T07:36:25;14.00;92.00
1778;DHT22;886;50.082;8.222;2023-05-17T07:38:57;14.00;92.40
1778;DHT22;886;50.082;8.222;2023-05-17T07:41:24;14.00;92.00
1778;DHT22;886;50.082;8.222;2023-05-17T07:43:52;14.00;91.50
1778;DHT22;886;50.082;8.222;2023-05-17T07:46:19;14.20;91.80
1778;DHT22;886;50.082;8.222;2023-05-17T07:48:47;14.40;90.60
1778;DHT22;886;50.082;8.222;2023-05-17T07:51:14;14.20;90.80
1778;DHT22;886;50.082;8.222;2023-05-17T07:53:41;14.10;91.00
1778;DHT22;886;50.082;8.222;2023-05-17T07:56:27;14.50;90.00
1778;DHT22;886;50.082;8.222;2023-05-17T07:58:54;14.70;89.50
1778;DHT22;886;50.082;8.222;2023-05-17T08:01:22;15.00;89.10
1778;DHT22;886;50.082;8.222;2023-05-17T08:03:49;15.10;88.10
1778;DHT22;886;50.082;8.222;2023-05-17T08:06:17;14.90;87.90
1778;DHT22;886;50.082;8.222;2023-05-17T08:08:44;14.90;88.10
1778;DHT22;886;50.082;8.222;2023-05-17T08:11:12;14.40;89.30
1778;DHT22;886;50.082;8.222;2023-05-17T08:13:41;14.20;90.50
1778;DHT22;886;50.082;8.222;2023-05-17T08:16:08;13.80;91.10
1778;DHT22;886;50.082;8.222;2023-05-17T08:18:40;13.70;91.30
1778;DHT22;886;50.082;8.222;2023-05-17T08:21:08;13.60;91.40
1778;DHT22;886;50.082;8.222;2023-05-17T08:23:35;13.40;91.30
1778;DHT22;886;50.082;8.222;2023-05-17T08:26:02;13.30;91.60
1778;DHT22;886;50.082;8.222;2023-05-17T08:28:29;13.20;91.30
1778;DHT22;886;50.082;8.222;2023-05-17T08:30:58;13.20;91.60
1778;DHT22;886;50.082;8.222;2023-05-17T08:33:26;13.40;91.70
1778;DHT22;886;50.082;8.222;2023-05-17T08:35:54;13.60;91.40
1778;DHT22;886;50.082;8.222;2023-05-17T08:38:23;13.70;91.50
1778;DHT22;886;50.082;8.222;2023-05-17T08:40:54;13.80;91.40
1778;DHT22;886;50.082;8.222;2023-05-17T08:43:22;13.80;91.40
1778;DHT22;886;50.082;8.222;2023-05-17T08:45:53;13.80;91.50
1778;DHT22;886;50.082;8.222;2023-05-17T08:48:25;13.70;91.70
1778;DHT22;886;50.082;8.222;2023-05-17T08:50:54;13.50;91.70
1778;DHT22;886;50.082;8.222;2023-05-17T08:53:24;13.80;92.00
1778;DHT22;886;50.082;8.222;2023-05-17T08:55:56;14.50;91.50
1778;DHT22;886;50.082;8.222;2023-05-17T08:58:27;15.10;90.80
1778;DHT22;886;50.082;8.222;2023-05-17T09:01:18;15.60;89.20
1778;DHT22;886;50.082;8.222;2023-05-17T09:03:46;16.20;88.20
1778;DHT22;886;50.082;8.222;2023-05-17T09:06:15;16.50;87.70
1778;DHT22;886;50.082;8.222;2023-05-17T09:08:44;16.50;85.30
1778;DHT22;886;50.082;8.222;2023-05-17T09:11:11;16.10;83.90
1778;DHT22;886;50.082;8.222;2023-05-17T09:13:38;15.50;86.30
1778;DHT22;886;50.082;8.222;2023-05-17T09:16:12;15.00;88.10
1778;DHT22;886;50.082;8.222;2023-05-17T09:18:40;14.60;89.90
1778;DHT22;886;50.082;8.222;2023-05-17T09:21:12;14.60;90.30
1778;DHT22;886;50.082;8.222;2023-05-17T09:23:39;14.50;90.20
1778;DHT22;886;50.082;8.222;2023-05-17T09:26:10;14.40;91.00
1778;DHT22;886;50.082;8.222;2023-05-17T09:28:40;14.30;91.00
1778;DHT22;886;50.082;8.222;2023-05-17T09:31:10;14.30;91.00
1778;DHT22;886;50.082;8.222;2023-05-17T09:33:44;14.30;91.20
1778;DHT22;886;50.082;8.222;2023-05-17T09:36:19;14.20;91.00
1778;DHT22;886;50.082;8.222;2023-05-17T09:38:53;14.20;91.00
1778;DHT22;886;50.082;8.222;2023-05-17T09:41:21;14.20;90.80
1778;DHT22;886;50.082;8.222;2023-05-17T09:43:52;14.10;91.30
1778;DHT22;886;50.082;8.222;2023-05-17T09:46:20;14.00;90.50
1778;DHT22;886;50.082;8.222;2023-05-17T09:48:53;14.00;91.10
1778;DHT22;886;50.082;8.222;2023-05-17T09:51:32;14.30;90.60
1778;DHT22;886;50.082;8.222;2023-05-17T09:53:59;14.50;90.50
1778;DHT22;886;50.082;8.222;2023-05-17T09:56:27;14.60;89.80
1778;DHT22;886;50.082;8.222;2023-05-17T09:58:56;14.30;88.40
1778;DHT22;886;50.082;8.222;2023-05-17T10:01:25;14.10;89.80
1778;DHT22;886;50.082;8.222;2023-05-17T10:03:54;14.20;89.60
1778;DHT22;886;50.082;8.222;2023-05-17T10:06:41;14.00;90.00
1778;DHT22;886;50.082;8.222;2023-05-17T10:09:28;14.00;90.20
1778;DHT22;886;50.082;8.222;2023-05-17T10:12:01;13.90;90.50
1778;DHT22;886;50.082;8.222;2023-05-17T10:14:32;13.80;90.90
1778;DHT22;886;50.082;8.222;2023-05-17T10:17:01;13.90;91.00
1778;DHT22;886;50.082;8.222;2023-05-17T10:19:29;14.00;91.00
1778;DHT22;886;50.082;8.222;2023-05-17T10:22:00;14.10;91.30
1778;DHT22;886;50.082;8.222;2023-05-17T10:24:49;14.20;90.90
1778;DHT22;886;50.082;8.222;2023-05-17T10:27:18;14.30;88.90
1778;DHT22;886;50.082;8.222;2023-05-17T10:29:46;14.40;87.00
1778;DHT22;886;50.082;8.222;2023-05-17T10:32:18;14.50;87.40
1778;DHT22;886;50.082;8.222;2023-05-17T10:34:49;14.80;87.30
1778;DHT22;886;50.082;8.222;2023-05-17T10:37:38;14.90;88.20
1778;DHT22;886;50.082;8.222;2023-05-17T10:40:07;14.60;90.00
1778;DHT22;886;50.082;8.222;2023-05-17T10:42:42;14.50;90.80
1778;DHT22;886;50.082;8.222;2023-05-17T10:45:12;14.50;91.30
1778;DHT22;886;50.082;8.222;2023-05-17T10:47:40;14.40;91.60
1778;DHT22;886;50.082;8.222;2023-05-17T10:50:10;14.20;92.00
1778;DHT22;886;50.082;8.222;2023-05-17T10:52:45;14.20;92.10
1778;DHT22;886;50.082;8.222;2023-05-17T10:55:17;14.30;91.80
1778;DHT22;886;50.082;8.222;2023-05-17T10:58:07;14.40;91.40
1778;DHT22;886;50.082;8.222;2023-05-17T11:00:43;14.60;90.00
1778;DHT22;886;50.082;8.222;2023-05-17T11:03:15;14.80;89.20
1778;DHT22;886;50.082;8.222;2023-05-17T11:09:12;14.90;88.30
1778;DHT22;886;50.082;8.222;2023-05-17T11:12:04;15.00;86.70
1778;DHT22;886;50.082;8.222;2023-05-17T11:14:45;15.00;85.40
1778;DHT22;886;50.082;8.222;2023-05-17T11:17:19;15.20;84.80
1778;DHT22;886;50.082;8.222;2023-05-17T11:20:01;15.30;84.20
1778;DHT22;886;50.082;8.222;2023-05-17T11:22:37;15.40;84.30
1778;DHT22;886;50.082;8.222;2023-05-17T11:25:09;15.30;83.10
1778;DHT22;886;50.082;8.222;2023-05-17T11:27:40;15.20;84.40
1778;DHT22;886;50.082;8.222;2023-05-17T11:30:16;15.00;85.20
1778;DHT22;886;50.082;8.222;2023-05-17T11:32:47;14.90;85.00
1778;DHT22;886;50.082;8.222;2023-05-17T11:35:16;14.80;84.60
1778;DHT22;886;50.082;8.222;2023-05-17T11:37:44;14.90;84.30
1778;DHT22;886;50.082;8.222;2023-05-17T11:40:31;15.10;84.00
1778;DHT22;886;50.082;8.222;2023-05-17T11:43:12;15.20;83.30
1778;DHT22;886;50.082;8.222;2023-05-17T11:45:42;15.30;82.20
1778;DHT22;886;50.082;8.222;2023-05-17T11:48:11;15.30;81.90
1778;DHT22;886;50.082;8.222;2023-05-17T11:50:40;15.30;82.50
1778;DHT22;886;50.082;8.222;2023-05-17T11:53:08;15.30;81.50
1778;DHT22;886;50.082;8.222;2023-05-17T11:55:39;15.50;82.20
1778;DHT22;886;50.082;8.222;2023-05-17T11:58:09;15.50;80.80
1778;DHT22;886;50.082;8.222;2023-05-17T12:00:38;15.50;81.50
1778;DHT22;886;50.082;8.222;2023-05-17T12:03:18;15.50;81.00
1778;DHT22;886;50.082;8.222;2023-05-17T12:05:48;15.40;80.20
1778;DHT22;886;50.082;8.222;2023-05-17T12:08:17;15.40;80.00
1778;DHT22;886;50.082;8.222;2023-05-17T12:10:48;15.50;79.90
1778;DHT22;886;50.082;8.222;2023-05-17T12:13:16;15.60;80.50
1778;DHT22;886;50.082;8.222;2023-05-17T12:15:46;15.60;80.40
1778;DHT22;886;50.082;8.222;2023-05-17T12:18:17;15.60;80.90
1778;DHT22;886;50.082;8.222;2023-05-17T12:20:53;15.50;80.40
1778;DHT22;886;50.082;8.222;2023-05-17T12:23:28;15.70;80.80
1778;DHT22;886;50.082;8.222;2023-05-17T12:26:06;15.80;80.90
1778;DHT22;886;50.082;8.222;2023-05-17T12:28:35;15.90;81.10
1778;DHT22;886;50.082;8.222;2023-05-17T12:31:06;15.90;81.20
1778;DHT22;886;50.082;8.222;2023-05-17T12:33:37;15.90;79.90
1778;DHT22;886;50.082;8.222;2023-05-17T12:36:07;15.90;79.70
1778;DHT22;886;50.082;8.222;2023-05-17T12:38:38;15.90;77.40
1778;DHT22;886;50.082;8.222;2023-05-17T12:41:08;15.90;77.40
1778;DHT22;886;50.082;8.222;2023-05-17T12:43:39;16.10;77.40
1778;DHT22;886;50.082;8.222;2023-05-17T12:46:07;16.20;76.30
1778;DHT22;886;50.082;8.222;2023-05-17T12:48:35;16.30;76.30
1778;DHT22;886;50.082;8.222;2023-05-17T12:51:07;16.10;77.50
1778;DHT22;886;50.082;8.222;2023-05-17T12:53:38;16.10;78.20
1778;DHT22;886;50.082;8.222;2023-05-17T12:56:13;16.00;79.20
1778;DHT22;886;50.082;8.222;2023-05-17T12:58:43;15.90;78.70
1778;DHT22;886;50.082;8.222;2023-05-17T13:01:10;16.00;77.40
1778;DHT22;886;50.082;8.222;2023-05-17T13:03:40;16.00;76.10
1778;DHT22;886;50.082;8.222;2023-05-17T13:06:08;16.00;76.40
1778;DHT22;886;50.082;8.222;2023-05-17T13:08:36;16.10;76.40
1778;DHT22;886;50.082;8.222;2023-05-17T13:11:10;16.20;76.20
1778;DHT22;886;50.082;8.222;2023-05-17T13:13:38;16.40;75.60
1778;DHT22;886;50.082;8.222;2023-05-17T13:16:06;16.40;74.80
1778;DHT22;886;50.082;8.222;2023-05-17T13:18:47;16.30;74.60
1778;DHT22;886;50.082;8.222;2023-05-17T13:21:17;16.30;74.60
1778;DHT22;886;50.082;8.222;2023-05-17T13:23:46;16.50;74.70
1778;DHT22;886;50.082;8.222;2023-05-17T13:26:16;16.40;75.30
1778;DHT22;886;50.082;8.222;2023-05-17T13:28:44;16.40;75.40
1778;DHT22;886;50.082;8.222;2023-05-17T13:31:12;16.40;75.50
1778;DHT22;886;50.082;8.222;2023-05-17T13:33:39;16.40;75.90
1778;DHT22;886;50.082;8.222;2023-05-17T13:36:07;16.40;77.10
1778;DHT22;886;50.082;8.222;2023-05-17T13:38:34;16.40;75.10
1778;DHT22;886;50.082;8.222;2023-05-17T13:41:01;16.50;75.50
1778;DHT22;886;50.082;8.222;2023-05-17T13:43:30;16.50;74.30
1778;DHT22;886;50.082;8.222;2023-05-17T13:45:57;16.60;73.70
1778;DHT22;886;50.082;8.222;2023-05-17T13:48:24;16.60;74.40
1778;DHT22;886;50.082;8.222;2023-05-17T13:50:52;16.60;73.40
1778;DHT22;886;50.082;8.222;2023-05-17T13:53:19;16.60;73.60
1778;DHT22;886;50.082;8.222;2023-05-17T13:55:46;16.60;75.00
1778;DHT22;886;50.082;8.222;2023-05-17T13:58:13;16.50;75.20
1778;DHT22;886;50.082;8.222;2023-05-17T14:00:43;16.50;75.20
1778;DHT22;886;50.082;8.222;2023-05-17T14:03:11;16.40;75.70
1778;DHT22;886;50.082;8.222;2023-05-17T14:05:39;16.50;75.50
1778;DHT22;886;50.082;8.222;2023-05-17T14:08:06;16.60;75.10
1778;DHT22;886;50.082;8.222;2023-05-17T14:10:35;16.50;74.50
1778;DHT22;886;50.082;8.222;2023-05-17T14:13:02;16.60;76.90
1778;DHT22;886;50.082;8.222;2023-05-17T14:15:29;16.50;75.50
1778;DHT22;886;50.082;8.222;2023-05-17T14:17:57;16.60;74.70
1778;DHT22;886;50.082;8.222;2023-05-17T14:20:25;16.70;74.00
1778;DHT22;886;50.082;8.222;2023-05-17T14:22:52;16.70;74.60
1778;DHT22;886;50.082;8.222;2023-05-17T14:25:20;16.80;74.90
1778;DHT22;886;50.082;8.222;2023-05-17T14:27:47;16.90;74.10
1778;DHT22;886;50.082;8.222;2023-05-17T14:30:14;17.00;74.30
1778;DHT22;886;50.082;8.222;2023-05-17T14:32:41;17.00;75.70
1778;DHT22;886;50.082;8.222;2023-05-17T14:35:10;17.00;74.50
1778;DHT22;886;50.082;8.222;2023-05-17T14:37:38;17.00;74.00
1778;DHT22;886;50.082;8.222;2023-05-17T14:40:06;16.90;73.30
1778;DHT22;886;50.082;8.222;2023-05-17T14:42:34;16.80;73.60
1778;DHT22;886;50.082;8.222;2023-05-17T14:45:01;16.90;73.30
1778;DHT22;886;50.082;8.222;2023-05-17T14:47:28;17.00;73.10
1778;DHT22;886;50.082;8.222;2023-05-17T14:49:56;17.00;73.20
1778;DHT22;886;50.082;8.222;2023-05-17T14:52:25;17.10;73.90
1778;DHT22;886;50.082;8.222;2023-05-17T14:54:52;17.00;73.20
1778;DHT22;886;50.082;8.222;2023-05-17T14:57:19;17.00;73.00
1778;DHT22;886;50.082;8.222;2023-05-17T14:59:47;17.00;72.70
1778;DHT22;886;50.082;8.222;2023-05-17T15:02:14;17.00;72.10
1778;DHT22;886;50.082;8.222;2023-05-17T15:04:42;17.10;72.00
1778;DHT22;886;50.082;8.222;2023-05-17T15:07:09;17.10;72.00
1778;DHT22;886;50.082;8.222;2023-05-17T15:09:41;17.10;71.70
1778;DHT22;886;50.082;8.222;2023-05-17T15:12:10;17.10;72.20
1778;DHT22;886;50.082;8.222;2023-05-17T15:14:39;17.10;72.10
1778;DHT22;886;50.082;8.222;2023-05-17T15:17:06;17.10;72.00
1778;DHT22;886;50.082;8.222;2023-05-17T15:19:34;17.10;71.40
1778;DHT22;886;50.082;8.222;2023-05-17T15:22:02;17.10;71.90
1778;DHT22;886;50.082;8.222;2023-05-17T15:24:29;17.00;72.40
1778;DHT22;886;50.082;8.222;2023-05-17T15:26:57;17.10;72.40
1778;DHT22;886;50.082;8.222;2023-05-17T15:29:25;17.20;72.90
1778;DHT22;886;50.082;8.222;2023-05-17T15:31:52;17.20;72.80
1778;DHT22;886;50.082;8.222;2023-05-17T15:34:36;17.30;72.30
1778;DHT22;886;50.082;8.222;2023-05-17T15:37:04;17.20;71.40
1778;DHT22;886;50.082;8.222;2023-05-17T15:39:31;17.20;71.60
1778;DHT22;886;50.082;8.222;2023-05-17T15:41:59;17.20;71.90
1778;DHT22;886;50.082;8.222;2023-05-17T15:44:27;17.20;72.30
1778;DHT22;886;50.082;8.222;2023-05-17T15:46:54;17.10;72.20
1778;DHT22;886;50.082;8.222;2023-05-17T15:49:21;17.00;72.60
1778;DHT22;886;50.082;8.222;2023-05-17T15:51:49;17.10;73.30
1778;DHT22;886;50.082;8.222;2023-05-17T15:54:16;17.10;73.30
1778;DHT22;886;50.082;8.222;2023-05-17T15:56:43;17.10;73.60
1778;DHT22;886;50.082;8.222;2023-05-17T15:59:12;17.10;72.60
1778;DHT22;886;50.082;8.222;2023-05-17T16:01:40;17.10;72.30
1778;DHT22;886;50.082;8.222;2023-05-17T16:04:08;17.10;73.70
1778;DHT22;886;50.082;8.222;2023-05-17T16:06:35;17.10;73.20
1778;DHT22;886;50.082;8.222;2023-05-17T16:09:03;17.20;73.00
1778;DHT22;886;50.082;8.222;2023-05-17T16:11:30;17.20;72.50
1778;DHT22;886;50.082;8.222;2023-05-17T16:13:57;17.20;71.60
1778;DHT22;886;50.082;8.222;2023-05-17T16:16:26;17.20;72.00
1778;DHT22;886;50.082;8.222;2023-05-17T16:18:53;17.20;71.30
1778;DHT22;886;50.082;8.222;2023-05-17T16:21:21;17.20;71.30
1778;DHT22;886;50.082;8.222;2023-05-17T16:23:48;17.20;71.40
1778;DHT22;886;50.082;8.222;2023-05-17T16:26:15;17.30;70.50
1778;DHT22;886;50.082;8.222;2023-05-17T16:28:42;17.30;70.60
1778;DHT22;886;50.082;8.222;2023-05-17T16:31:09;17.20;71.00
1778;DHT22;886;50.082;8.222;2023-05-17T16:33:38;17.30;71.10
1778;DHT22;886;50.082;8.222;2023-05-17T16:36:07;17.30;71.20
1778;DHT22;886;50.082;8.222;2023-05-17T16:38:34;17.40;71.40
1778;DHT22;886;50.082;8.222;2023-05-17T16:41:02;17.30;71.20